sensor_id;sensor_type;location;lat;lon;timestamp;pressure;altitude;pressure_sealevel;temperature;humidity
23427;BME280;41148;45.420;10.952;2022-08-11T00:01:57;101096.94;;;25.88;42.75
23427;BME280;41148;45.420;10.952;2022-08-11T00:04:25;101091.41;;;25.78;42.97
23427;BME280;41148;45.420;10.952;2022-08-11T00:07:01;101098.97;;;25.75;43.01
23427;BME280;41148;45.420;10.952;2022-08-11T00:09:32;101094.84;;;25.80;43.04
23427;BME280;41148;45.420;10.952;2022-08-11T00:12:11;101093.34;;;25.87;42.77
23427;BME280;41148;45.420;10.952;2022-08-11T00:14:38;101089.63;;;25.88;43.01
23427;BME280;41148;45.420;10.952;2022-08-11T00:17:07;101084.75;;;25.92;42.90
23427;BME280;41148;45.420;10.952;2022-08-11T00:19:40;101089.56;;;26.00;42.75
23427;BME280;41148;45.420;10.952;2022-08-11T00:22:31;101091.00;;;26.04;42.91
23427;BME280;41148;45.420;10.952;2022-08-11T00:24:59;101090.28;;;26.02;42.83
23427;BME280;41148;45.420;10.952;2022-08-11T00:27:35;101094.72;;;26.03;42.84
23427;BME280;41148;45.420;10.952;2022-08-11T00:30:03;101097.75;;;26.00;42.95
23427;BME280;41148;45.420;10.952;2022-08-11T00:32:31;101105.44;;;25.94;43.24
23427;BME280;41148;45.420;10.952;2022-08-11T00:35:00;101098.75;;;25.99;43.13
23427;BME280;41148;45.420;10.952;2022-08-11T00:37:49;101100.41;;;25.90;43.31
23427;BME280;41148;45.420;10.952;2022-08-11T00:40:23;101093.28;;;25.99;43.29
23427;BME280;41148;45.420;10.952;2022-08-11T00:42:59;101093.88;;;26.02;43.38
23427;BME280;41148;45.420;10.952;2022-08-11T00:45:30;101099.13;;;25.94;43.70
23427;BME280;41148;45.420;10.952;2022-08-11T00:48:03;101100.41;;;25.90;43.90
23427;BME280;41148;45.420;10.952;2022-08-11T00:53:34;101099.97;;;25.94;44.15
23427;BME280;41148;45.420;10.952;2022-08-11T00:58:44;101094.53;;;25.94;44.23
23427;BME280;41148;45.420;10.952;2022-08-11T01:01:20;101087.34;;;25.93;44.21
23427;BME280;41148;45.420;10.952;2022-08-11T01:04:08;101097.44;;;25.82;44.80
23427;BME280;41148;45.420;10.952;2022-08-11T01:09:13;101088.06;;;25.95;44.64
23427;BME280;41148;45.420;10.952;2022-08-11T01:42:00;101033.09;;;25.79;44.91
23427;BME280;41148;45.420;10.952;2022-08-11T01:45:01;101022.59;;;25.63;45.20
23427;BME280;41148;45.420;10.952;2022-08-11T01:58:37;101016.00;;;25.77;44.91
23427;BME280;41148;45.420;10.952;2022-08-11T02:12:34;101011.53;;;26.28;43.15
23427;BME280;41148;45.420;10.952;2022-08-11T02:20:36;101006.41;;;26.13;44.35
23427;BME280;41148;45.420;10.952;2022-08-11T02:23:42;100998.06;;;25.84;46.71
23427;BME280;41148;45.420;10.952;2022-08-11T02:29:03;101000.53;;;25.34;49.05
23427;BME280;41148;45.420;10.952;2022-08-11T02:39:58;101001.03;;;25.28;49.52
23427;BME280;41148;45.420;10.952;2022-08-11T02:42:34;101002.31;;;25.24;49.75
23427;BME280;41148;45.420;10.952;2022-08-11T02:45:11;101007.97;;;24.78;50.90
23427;BME280;41148;45.420;10.952;2022-08-11T02:48:03;101004.44;;;24.44;51.99
23427;BME280;41148;45.420;10.952;2022-08-11T02:51:08;101003.81;;;24.51;52.25
23427;BME280;41148;45.420;10.952;2022-08-11T02:59:16;101006.94;;;25.01;50.53
23427;BME280;41148;45.420;10.952;2022-08-11T03:02:18;100998.53;;;24.93;51.02
23427;BME280;41148;45.420;10.952;2022-08-11T03:07:23;101004.34;;;24.89;51.16
23427;BME280;41148;45.420;10.952;2022-08-11T03:10:03;101002.25;;;24.92;51.11
23427;BME280;41148;45.420;10.952;2022-08-11T03:12:35;101008.69;;;24.91;51.31
23427;BME280;41148;45.420;10.952;2022-08-11T03:15:30;101002.28;;;24.81;51.68
23427;BME280;41148;45.420;10.952;2022-08-11T03:18:20;100998.66;;;24.92;51.05
23427;BME280;41148;45.420;10.952;2022-08-11T03:21:00;100996.81;;;24.92;51.38
23427;BME280;41148;45.420;10.952;2022-08-11T03:23:30;101003.03;;;24.83;51.73
23427;BME280;41148;45.420;10.952;2022-08-11T03:29:03;100999.75;;;24.89;51.29
23427;BME280;41148;45.420;10.952;2022-08-11T03:32:09;100989.53;;;24.81;51.70
23427;BME280;41148;45.420;10.952;2022-08-11T03:34:29;100993.84;;;24.84;51.51
23427;BME280;41148;45.420;10.952;2022-08-11T03:40:32;100990.78;;;24.66;52.18
23427;BME280;41148;45.420;10.952;2022-08-11T03:43:23;100999.56;;;24.70;51.89
23427;BME280;41148;45.420;10.952;2022-08-11T04:17:37;100982.09;;;24.27;53.33
23427;BME280;41148;45.420;10.952;2022-08-11T04:20:18;100989.41;;;24.27;53.13
23427;BME280;41148;45.420;10.952;2022-08-11T04:30:19;100982.25;;;24.37;52.45
23427;BME280;41148;45.420;10.952;2022-08-11T04:33:10;100980.28;;;24.39;52.53
23427;BME280;41148;45.420;10.952;2022-08-11T04:38:33;100986.25;;;24.33;53.57
23427;BME280;41148;45.420;10.952;2022-08-11T04:55:29;100992.13;;;23.93;55.49
23427;BME280;41148;45.420;10.952;2022-08-11T05:10:27;101016.84;;;24.02;54.16
23427;BME280;41148;45.420;10.952;2022-08-11T05:12:35;101016.75;;;24.03;54.21
23427;BME280;41148;45.420;10.952;2022-08-11T05:15:10;101015.25;;;24.10;53.29
23427;BME280;41148;45.420;10.952;2022-08-11T05:18:15;101013.66;;;24.19;52.83
23427;BME280;41148;45.420;10.952;2022-08-11T05:21:08;101006.88;;;24.24;52.17
23427;BME280;41148;45.420;10.952;2022-08-11T05:23:57;101012.31;;;24.24;51.85
23427;BME280;41148;45.420;10.952;2022-08-11T05:26:48;101014.53;;;24.31;52.14
23427;BME280;41148;45.420;10.952;2022-08-11T05:29:56;101014.34;;;24.34;52.33
23427;BME280;41148;45.420;10.952;2022-08-11T05:32:42;101009.38;;;24.39;51.38
23427;BME280;41148;45.420;10.952;2022-08-11T05:35:37;101013.59;;;24.43;51.11
23427;BME280;41148;45.420;10.952;2022-08-11T05:38:25;101015.19;;;24.45;51.30
23427;BME280;41148;45.420;10.952;2022-08-11T05:41:12;101015.91;;;24.59;50.62
23427;BME280;41148;45.420;10.952;2022-08-11T05:43:59;101017.88;;;24.68;49.54
23427;BME280;41148;45.420;10.952;2022-08-11T05:46:48;101027.44;;;24.73;48.88
23427;BME280;41148;45.420;10.952;2022-08-11T05:49:35;101018.38;;;24.84;48.88
23427;BME280;41148;45.420;10.952;2022-08-11T05:52:27;101008.03;;;24.99;48.24
23427;BME280;41148;45.420;10.952;2022-08-11T05:55:15;101010.56;;;25.34;47.73
23427;BME280;41148;45.420;10.952;2022-08-11T05:58:16;101009.22;;;25.60;46.95
23427;BME280;41148;45.420;10.952;2022-08-11T06:00:45;101015.88;;;25.67;46.03
23427;BME280;41148;45.420;10.952;2022-08-11T06:03:21;101016.75;;;25.68;46.06
23427;BME280;41148;45.420;10.952;2022-08-11T06:05:51;101013.50;;;25.74;46.13
23427;BME280;41148;45.420;10.952;2022-08-11T06:08:26;101015.00;;;25.78;45.28
23427;BME280;41148;45.420;10.952;2022-08-11T06:10:58;101012.31;;;25.88;44.62
23427;BME280;41148;45.420;10.952;2022-08-11T06:13:26;101001.50;;;25.86;45.01
23427;BME280;41148;45.420;10.952;2022-08-11T06:15:53;101016.91;;;25.87;43.91
23427;BME280;41148;45.420;10.952;2022-08-11T06:18:22;101010.03;;;25.93;43.07
23427;BME280;41148;45.420;10.952;2022-08-11T06:20:51;101007.84;;;26.08;41.80
23427;BME280;41148;45.420;10.952;2022-08-11T06:23:18;101014.81;;;26.21;40.75
23427;BME280;41148;45.420;10.952;2022-08-11T06:25:50;101011.63;;;26.16;41.40
23427;BME280;41148;45.420;10.952;2022-08-11T06:28:18;101007.91;;;26.17;42.17
23427;BME280;41148;45.420;10.952;2022-08-11T06:30:47;101009.34;;;26.21;40.80
23427;BME280;41148;45.420;10.952;2022-08-11T06:33:20;101013.28;;;26.29;40.15
23427;BME280;41148;45.420;10.952;2022-08-11T06:38:59;101014.34;;;26.37;38.11
23427;BME280;41148;45.420;10.952;2022-08-11T06:41:29;101010.72;;;26.37;35.84
23427;BME280;41148;45.420;10.952;2022-08-11T06:46:41;101011.38;;;26.50;36.33
23427;BME280;41148;45.420;10.952;2022-08-11T06:49:09;101007.84;;;26.69;33.47
23427;BME280;41148;45.420;10.952;2022-08-11T06:52:04;101009.03;;;26.76;33.09
23427;BME280;41148;45.420;10.952;2022-08-11T06:54:53;100998.72;;;26.99;32.79
23427;BME280;41148;45.420;10.952;2022-08-11T06:57:23;100998.19;;;27.05;32.51
23427;BME280;41148;45.420;10.952;2022-08-11T07:00:09;100997.91;;;27.08;31.58
23427;BME280;41148;45.420;10.952;2022-08-11T07:14:22;101004.69;;;27.43;29.99
23427;BME280;41148;45.420;10.952;2022-08-11T07:17:10;100999.50;;;27.49;30.35
23427;BME280;41148;45.420;10.952;2022-08-11T07:19:40;100989.13;;;27.53;29.37
23427;BME280;41148;45.420;10.952;2022-08-11T07:22:28;101000.53;;;27.67;29.05
23427;BME280;41148;45.420;10.952;2022-08-11T07:25:15;100992.16;;;27.79;29.02
23427;BME280;41148;45.420;10.952;2022-08-11T07:28:04;100990.25;;;27.89;28.45
23427;BME280;41148;45.420;10.952;2022-08-11T07:30:57;101001.66;;;27.84;28.32
23427;BME280;41148;45.420;10.952;2022-08-11T07:33:35;100994.34;;;27.65;28.77
23427;BME280;41148;45.420;10.952;2022-08-11T07:36:24;100996.91;;;27.57;28.84
23427;BME280;41148;45.420;10.952;2022-08-11T07:38:55;100993.59;;;27.83;28.70
23427;BME280;41148;45.420;10.952;2022-08-11T07:41:23;100993.59;;;27.83;28.41
23427;BME280;41148;45.420;10.952;2022-08-11T07:43:54;100993.13;;;27.87;28.15
23427;BME280;41148;45.420;10.952;2022-08-11T07:46:38;100993.47;;;27.75;27.62
23427;BME280;41148;45.420;10.952;2022-08-11T07:49:27;100987.25;;;27.63;28.30
23427;BME280;41148;45.420;10.952;2022-08-11T07:52:14;100989.72;;;27.76;27.65
23427;BME280;41148;45.420;10.952;2022-08-11T07:54:59;100988.41;;;27.89;27.56
23427;BME280;41148;45.420;10.952;2022-08-11T07:57:28;100991.69;;;27.93;27.92
23427;BME280;41148;45.420;10.952;2022-08-11T08:00:35;100991.22;;;28.07;27.77
23427;BME280;41148;45.420;10.952;2022-08-11T08:03:27;100988.94;;;28.03;27.41
23427;BME280;41148;45.420;10.952;2022-08-11T08:06:21;100988.25;;;27.91;27.24
23427;BME280;41148;45.420;10.952;2022-08-11T08:09:08;100985.34;;;28.02;26.90
23427;BME280;41148;45.420;10.952;2022-08-11T08:11:56;100992.50;;;28.13;26.93
23427;BME280;41148;45.420;10.952;2022-08-11T08:14:44;100985.28;;;28.31;26.48
23427;BME280;41148;45.420;10.952;2022-08-11T08:17:30;100987.19;;;28.11;27.10
23427;BME280;41148;45.420;10.952;2022-08-11T08:23:05;100986.34;;;28.48;26.01
23427;BME280;41148;45.420;10.952;2022-08-11T08:25:33;100984.00;;;28.53;26.39
23427;BME280;41148;45.420;10.952;2022-08-11T08:28:02;100990.03;;;28.66;26.18
23427;BME280;41148;45.420;10.952;2022-08-11T08:30:31;100988.78;;;28.78;26.80
23427;BME280;41148;45.420;10.952;2022-08-11T08:33:15;100982.25;;;28.89;26.31
23427;BME280;41148;45.420;10.952;2022-08-11T08:35:43;100984.38;;;28.95;26.31
23427;BME280;41148;45.420;10.952;2022-08-11T08:38:28;100980.56;;;29.06;26.54
23427;BME280;41148;45.420;10.952;2022-08-11T08:40:55;100980.31;;;28.99;27.17
23427;BME280;41148;45.420;10.952;2022-08-11T08:43:23;100989.06;;;29.03;26.67
23427;BME280;41148;45.420;10.952;2022-08-11T08:45:51;100990.75;;;28.96;26.71
23427;BME280;41148;45.420;10.952;2022-08-11T08:48:21;100991.75;;;28.67;26.55
23427;BME280;41148;45.420;10.952;2022-08-11T08:50:52;100996.25;;;28.86;25.96
23427;BME280;41148;45.420;10.952;2022-08-11T08:53:40;100987.06;;;29.05;26.18
23427;BME280;41148;45.420;10.952;2022-08-11T08:56:19;100981.63;;;29.13;26.02
23427;BME280;41148;45.420;10.952;2022-08-11T08:58:50;100981.19;;;29.18;26.05
23427;BME280;41148;45.420;10.952;2022-08-11T09:01:18;100990.50;;;29.07;25.69
23427;BME280;41148;45.420;10.952;2022-08-11T09:03:48;100984.38;;;29.31;25.36
23427;BME280;41148;45.420;10.952;2022-08-11T09:06:38;100976.78;;;29.60;24.46
23427;BME280;41148;45.420;10.952;2022-08-11T09:09:06;100983.13;;;29.79;24.73
23427;BME280;41148;45.420;10.952;2022-08-11T09:11:35;100983.41;;;29.93;24.13
23427;BME280;41148;45.420;10.952;2022-08-11T09:14:22;100985.31;;;30.01;24.52
23427;BME280;41148;45.420;10.952;2022-08-11T09:16:51;100972.97;;;29.53;24.89
23427;BME280;41148;45.420;10.952;2022-08-11T09:19:19;100967.22;;;29.47;25.21
23427;BME280;41148;45.420;10.952;2022-08-11T09:21:47;100971.69;;;29.91;24.20
23427;BME280;41148;45.420;10.952;2022-08-11T09:24:34;100973.09;;;30.13;23.87
23427;BME280;41148;45.420;10.952;2022-08-11T09:27:21;100971.34;;;30.46;24.04
23427;BME280;41148;45.420;10.952;2022-08-11T09:29:49;100976.63;;;30.66;22.77
23427;BME280;41148;45.420;10.952;2022-08-11T09:32:20;100960.38;;;30.97;22.66
23427;BME280;41148;45.420;10.952;2022-08-11T09:34:48;100956.50;;;31.65;21.85
23427;BME280;41148;45.420;10.952;2022-08-11T09:37:19;100963.56;;;31.51;22.12
23427;BME280;41148;45.420;10.952;2022-08-11T09:40:22;100956.94;;;30.95;23.01
23427;BME280;41148;45.420;10.952;2022-08-11T09:42:57;100955.53;;;30.48;23.66
23427;BME280;41148;45.420;10.952;2022-08-11T09:45:44;100961.56;;;30.44;23.27
23427;BME280;41148;45.420;10.952;2022-08-11T09:48:18;100952.97;;;29.87;24.00
23427;BME280;41148;45.420;10.952;2022-08-11T09:50:49;100955.31;;;29.82;24.29
23427;BME280;41148;45.420;10.952;2022-08-11T09:53:18;100959.31;;;29.87;24.05
23427;BME280;41148;45.420;10.952;2022-08-11T09:56:10;100952.47;;;29.91;24.17
23427;BME280;41148;45.420;10.952;2022-08-11T09:58:56;100944.44;;;29.98;24.28
23427;BME280;41148;45.420;10.952;2022-08-11T10:01:25;100935.94;;;30.09;24.51
23427;BME280;41148;45.420;10.952;2022-08-11T10:03:55;100943.88;;;29.86;24.74
23427;BME280;41148;45.420;10.952;2022-08-11T10:06:25;100941.53;;;30.00;25.09
23427;BME280;41148;45.420;10.952;2022-08-11T10:09:17;100933.75;;;30.13;24.71
23427;BME280;41148;45.420;10.952;2022-08-11T10:11:46;100933.63;;;29.97;24.33
23427;BME280;41148;45.420;10.952;2022-08-11T10:14:25;100931.50;;;30.08;24.68
23427;BME280;41148;45.420;10.952;2022-08-11T10:17:11;100934.00;;;30.28;25.12
23427;BME280;41148;45.420;10.952;2022-08-11T10:19:39;100930.06;;;30.38;24.22
23427;BME280;41148;45.420;10.952;2022-08-11T10:22:08;100920.22;;;29.93;24.67
23427;BME280;41148;45.420;10.952;2022-08-11T10:24:58;100924.41;;;30.06;25.43
23427;BME280;41148;45.420;10.952;2022-08-11T10:27:46;100915.56;;;30.12;25.62
23427;BME280;41148;45.420;10.952;2022-08-11T10:30:36;100914.59;;;30.29;25.04
23427;BME280;41148;45.420;10.952;2022-08-11T10:33:24;100912.94;;;30.44;25.37
23427;BME280;41148;45.420;10.952;2022-08-11T10:36:25;100905.94;;;30.50;25.81
23427;BME280;41148;45.420;10.952;2022-08-11T10:38:53;100907.63;;;30.59;24.99
23427;BME280;41148;45.420;10.952;2022-08-11T10:41:21;100892.94;;;30.26;24.86
23427;BME280;41148;45.420;10.952;2022-08-11T10:44:28;100897.91;;;30.23;25.30
23427;BME280;41148;45.420;10.952;2022-08-11T10:46:59;100895.00;;;30.24;24.71
23427;BME280;41148;45.420;10.952;2022-08-11T10:49:46;100887.69;;;30.41;24.86
23427;BME280;41148;45.420;10.952;2022-08-11T10:52:34;100884.06;;;30.40;25.09
23427;BME280;41148;45.420;10.952;2022-08-11T10:55:20;100888.16;;;30.36;24.74
23427;BME280;41148;45.420;10.952;2022-08-11T10:58:07;100890.50;;;30.15;25.35
23427;BME280;41148;45.420;10.952;2022-08-11T11:00:54;100880.53;;;30.14;25.78
23427;BME280;41148;45.420;10.952;2022-08-11T11:03:25;100884.81;;;30.16;25.92
23427;BME280;41148;45.420;10.952;2022-08-11T11:05:54;100882.97;;;30.25;25.99
23427;BME280;41148;45.420;10.952;2022-08-11T11:08:44;100881.09;;;30.26;26.33
23427;BME280;41148;45.420;10.952;2022-08-11T11:11:23;100867.22;;;30.35;26.17
23427;BME280;41148;45.420;10.952;2022-08-11T11:14:12;100870.50;;;30.47;25.87
23427;BME280;41148;45.420;10.952;2022-08-11T11:17:01;100873.06;;;30.48;25.29
23427;BME280;41148;45.420;10.952;2022-08-11T11:19:35;100872.00;;;30.33;25.66
23427;BME280;41148;45.420;10.952;2022-08-11T11:22:04;100870.50;;;30.05;25.79
23427;BME280;41148;45.420;10.952;2022-08-11T11:24:57;100871.22;;;30.07;25.95
23427;BME280;41148;45.420;10.952;2022-08-11T11:30:06;100868.44;;;29.73;26.06
23427;BME280;41148;45.420;10.952;2022-08-11T11:37:29;100854.56;;;30.08;26.18
23427;BME280;41148;45.420;10.952;2022-08-11T11:39:59;100851.69;;;30.18;25.85
23427;BME280;41148;45.420;10.952;2022-08-11T11:42:27;100861.78;;;30.09;26.17
23427;BME280;41148;45.420;10.952;2022-08-11T11:44:55;100853.44;;;29.93;25.75
23427;BME280;41148;45.420;10.952;2022-08-11T11:47:27;100857.28;;;29.74;26.52
23427;BME280;41148;45.420;10.952;2022-08-11T11:49:55;100848.72;;;29.77;26.29
23427;BME280;41148;45.420;10.952;2022-08-11T11:52:23;100840.75;;;30.00;26.17
23427;BME280;41148;45.420;10.952;2022-08-11T11:54:51;100840.50;;;30.11;25.99
23427;BME280;41148;45.420;10.952;2022-08-11T11:57:21;100838.16;;;30.25;25.83
23427;BME280;41148;45.420;10.952;2022-08-11T12:00:24;100841.75;;;29.91;26.18
23427;BME280;41148;45.420;10.952;2022-08-11T12:03:10;100835.38;;;29.90;26.72
23427;BME280;41148;45.420;10.952;2022-08-11T12:05:38;100831.00;;;30.06;25.91
23427;BME280;41148;45.420;10.952;2022-08-11T12:08:08;100830.03;;;30.15;26.62
23427;BME280;41148;45.420;10.952;2022-08-11T12:11:00;100823.75;;;30.31;26.71
23427;BME280;41148;45.420;10.952;2022-08-11T12:13:47;100824.25;;;30.34;25.60
23427;BME280;41148;45.420;10.952;2022-08-11T12:16:17;100821.91;;;30.05;25.91
23427;BME280;41148;45.420;10.952;2022-08-11T12:19:09;100811.53;;;30.25;26.93
23427;BME280;41148;45.420;10.952;2022-08-11T12:21:38;100819.28;;;30.38;26.66
23427;BME280;41148;45.420;10.952;2022-08-11T12:24:30;100805.94;;;30.51;26.34
23427;BME280;41148;45.420;10.952;2022-08-11T12:27:17;100801.09;;;30.53;25.96
23427;BME280;41148;45.420;10.952;2022-08-11T12:29:58;100806.03;;;30.25;25.72
23427;BME280;41148;45.420;10.952;2022-08-11T12:32:27;100801.75;;;30.31;25.51
23427;BME280;41148;45.420;10.952;2022-08-11T12:34:55;100804.00;;;30.43;25.96
23427;BME280;41148;45.420;10.952;2022-08-11T12:40:38;100794.91;;;30.59;25.67
23427;BME280;41148;45.420;10.952;2022-08-11T12:43:44;100800.22;;;30.44;25.71
23427;BME280;41148;45.420;10.952;2022-08-11T12:46:31;100781.88;;;30.53;26.06
23427;BME280;41148;45.420;10.952;2022-08-11T12:49:01;100784.78;;;30.43;25.82
23427;BME280;41148;45.420;10.952;2022-08-11T12:51:53;100786.69;;;30.51;25.64
23427;BME280;41148;45.420;10.952;2022-08-11T13:00:12;100774.47;;;30.54;26.52
23427;BME280;41148;45.420;10.952;2022-08-11T13:02:58;100768.97;;;30.54;26.43
23427;BME280;41148;45.420;10.952;2022-08-11T13:05:45;100765.88;;;30.57;26.01
23427;BME280;41148;45.420;10.952;2022-08-11T13:08:13;100764.34;;;30.62;25.81
23427;BME280;41148;45.420;10.952;2022-08-11T13:10:42;100760.06;;;30.60;26.93
23427;BME280;41148;45.420;10.952;2022-08-11T13:13:28;100758.16;;;30.60;26.93
23427;BME280;41148;45.420;10.952;2022-08-11T13:16:15;100754.38;;;30.53;27.13
23427;BME280;41148;45.420;10.952;2022-08-11T13:18:43;100742.16;;;30.47;25.86
23427;BME280;41148;45.420;10.952;2022-08-11T13:21:11;100739.22;;;30.49;26.34
23427;BME280;41148;45.420;10.952;2022-08-11T13:23:53;100734.94;;;30.46;25.90
23427;BME280;41148;45.420;10.952;2022-08-11T13:26:32;100732.56;;;30.52;26.60
23427;BME280;41148;45.420;10.952;2022-08-11T13:29:18;100733.22;;;30.54;25.75
23427;BME280;41148;45.420;10.952;2022-08-11T13:31:46;100729.44;;;30.55;25.92
23427;BME280;41148;45.420;10.952;2022-08-11T13:34:15;100729.81;;;30.60;26.41
23427;BME280;41148;45.420;10.952;2022-08-11T13:36:43;100732.38;;;30.53;25.83
23427;BME280;41148;45.420;10.952;2022-08-11T13:39:11;100727.56;;;30.55;26.55
23427;BME280;41148;45.420;10.952;2022-08-11T13:41:40;100722.56;;;30.34;26.39
23427;BME280;41148;45.420;10.952;2022-08-11T13:44:08;100727.72;;;30.37;27.30
23427;BME280;41148;45.420;10.952;2022-08-11T13:46:37;100722.22;;;30.45;27.75
23427;BME280;41148;45.420;10.952;2022-08-11T13:49:05;100716.25;;;30.50;27.62
23427;BME280;41148;45.420;10.952;2022-08-11T13:51:35;100709.00;;;30.49;27.82
23427;BME280;41148;45.420;10.952;2022-08-11T13:54:05;100711.59;;;30.51;28.12
23427;BME280;41148;45.420;10.952;2022-08-11T13:56:34;100712.59;;;30.58;27.92
23427;BME280;41148;45.420;10.952;2022-08-11T13:59:02;100705.06;;;30.60;28.11
23427;BME280;41148;45.420;10.952;2022-08-11T14:01:33;100697.69;;;30.60;27.76
23427;BME280;41148;45.420;10.952;2022-08-11T14:04:29;100691.81;;;30.47;26.95
23427;BME280;41148;45.420;10.952;2022-08-11T14:07:01;100700.06;;;30.47;27.31
23427;BME280;41148;45.420;10.952;2022-08-11T14:09:31;100691.16;;;30.53;27.91
23427;BME280;41148;45.420;10.952;2022-08-11T14:12:01;100688.72;;;30.58;27.94
23427;BME280;41148;45.420;10.952;2022-08-11T14:15:04;100681.50;;;30.57;28.07
23427;BME280;41148;45.420;10.952;2022-08-11T14:17:34;100687.03;;;30.65;27.52
23427;BME280;41148;45.420;10.952;2022-08-11T14:20:15;100678.06;;;30.63;27.30
23427;BME280;41148;45.420;10.952;2022-08-11T14:23:03;100679.81;;;30.64;27.94
23427;BME280;41148;45.420;10.952;2022-08-11T14:25:31;100682.38;;;30.58;27.36
23427;BME280;41148;45.420;10.952;2022-08-11T14:28:19;100673.97;;;30.51;27.95
23427;BME280;41148;45.420;10.952;2022-08-11T14:31:00;100669.50;;;30.50;28.27
23427;BME280;41148;45.420;10.952;2022-08-11T14:33:30;100666.91;;;30.48;28.13
23427;BME280;41148;45.420;10.952;2022-08-11T14:36:20;100668.47;;;30.51;28.20
23427;BME280;41148;45.420;10.952;2022-08-11T14:38:49;100668.13;;;30.54;28.19
23427;BME280;41148;45.420;10.952;2022-08-11T14:41:16;100662.78;;;30.53;27.90
23427;BME280;41148;45.420;10.952;2022-08-11T14:44:23;100664.88;;;30.51;27.62
23427;BME280;41148;45.420;10.952;2022-08-11T14:47:10;100660.91;;;30.37;28.19
23427;BME280;41148;45.420;10.952;2022-08-11T14:49:52;100652.66;;;30.37;27.73
23427;BME280;41148;45.420;10.952;2022-08-11T14:52:41;100651.63;;;30.46;27.92
23427;BME280;41148;45.420;10.952;2022-08-11T14:55:09;100652.31;;;30.40;27.41
23427;BME280;41148;45.420;10.952;2022-08-11T14:57:56;100644.22;;;30.38;27.57
23427;BME280;41148;45.420;10.952;2022-08-11T15:00:24;100641.66;;;30.37;27.97
23427;BME280;41148;45.420;10.952;2022-08-11T15:02:52;100645.81;;;30.41;28.13
23427;BME280;41148;45.420;10.952;2022-08-11T15:05:52;100639.09;;;30.43;27.25
23427;BME280;41148;45.420;10.952;2022-08-11T15:08:28;100642.88;;;30.42;27.08
23427;BME280;41148;45.420;10.952;2022-08-11T15:11:15;100630.13;;;30.49;26.74
23427;BME280;41148;45.420;10.952;2022-08-11T15:14:02;100631.88;;;30.42;27.18
23427;BME280;41148;45.420;10.952;2022-08-11T15:16:29;100631.53;;;30.37;27.43
23427;BME280;41148;45.420;10.952;2022-08-11T15:19:15;100614.00;;;30.46;27.46
23427;BME280;41148;45.420;10.952;2022-08-11T15:21:48;100626.38;;;30.51;27.08
23427;BME280;41148;45.420;10.952;2022-08-11T15:24:34;100622.41;;;30.45;27.81
23427;BME280;41148;45.420;10.952;2022-08-11T15:27:08;100621.38;;;30.46;28.41
23427;BME280;41148;45.420;10.952;2022-08-11T15:29:56;100617.41;;;30.48;26.99
23427;BME280;41148;45.420;10.952;2022-08-11T15:33:03;100616.06;;;30.44;27.28
23427;BME280;41148;45.420;10.952;2022-08-11T15:35:51;100611.25;;;30.46;27.07
23427;BME280;41148;45.420;10.952;2022-08-11T15:38:41;100612.63;;;30.51;26.64
23427;BME280;41148;45.420;10.952;2022-08-11T15:41:11;100607.13;;;30.42;27.29
23427;BME280;41148;45.420;10.952;2022-08-11T15:44:02;100606.09;;;30.43;27.01
23427;BME280;41148;45.420;10.952;2022-08-11T15:47:10;100612.13;;;30.31;27.11
23427;BME280;41148;45.420;10.952;2022-08-11T15:49:40;100598.22;;;30.32;27.23
23427;BME280;41148;45.420;10.952;2022-08-11T15:52:32;100599.75;;;30.27;27.30
23427;BME280;41148;45.420;10.952;2022-08-11T15:55:03;100600.28;;;30.22;27.85
23427;BME280;41148;45.420;10.952;2022-08-11T15:57:35;100600.78;;;30.17;27.77
23427;BME280;41148;45.420;10.952;2022-08-11T16:00:21;100605.94;;;30.20;27.31
23427;BME280;41148;45.420;10.952;2022-08-11T16:03:07;100594.25;;;30.35;27.36
23427;BME280;41148;45.420;10.952;2022-08-11T16:06:14;100604.22;;;30.28;27.14
23427;BME280;41148;45.420;10.952;2022-08-11T16:08:42;100597.69;;;30.29;26.77
23427;BME280;41148;45.420;10.952;2022-08-11T16:11:11;100598.03;;;30.26;26.68
23427;BME280;41148;45.420;10.952;2022-08-11T16:13:39;100603.03;;;30.22;26.74
23427;BME280;41148;45.420;10.952;2022-08-11T16:16:06;100596.84;;;30.12;26.49
23427;BME280;41148;45.420;10.952;2022-08-11T16:18:50;100604.06;;;30.13;26.73
23427;BME280;41148;45.420;10.952;2022-08-11T16:21:21;100601.50;;;30.11;26.55
23427;BME280;41148;45.420;10.952;2022-08-11T16:24:03;100594.25;;;30.10;26.94
23427;BME280;41148;45.420;10.952;2022-08-11T16:26:30;100586.19;;;30.09;26.76
23427;BME280;41148;45.420;10.952;2022-08-11T16:29:20;100583.13;;;30.12;26.48
23427;BME280;41148;45.420;10.952;2022-08-11T16:31:49;100591.19;;;30.13;26.43
23427;BME280;41148;45.420;10.952;2022-08-11T16:34:37;100586.88;;;30.11;26.75
23427;BME280;41148;45.420;10.952;2022-08-11T16:37:24;100589.25;;;30.06;26.49
23427;BME280;41148;45.420;10.952;2022-08-11T16:40:10;100590.47;;;30.03;26.70
23427;BME280;41148;45.420;10.952;2022-08-11T16:42:38;100591.31;;;30.04;26.37
23427;BME280;41148;45.420;10.952;2022-08-11T16:45:38;100591.50;;;30.02;26.32
23427;BME280;41148;45.420;10.952;2022-08-11T16:48:25;100594.75;;;29.98;26.68
23427;BME280;41148;45.420;10.952;2022-08-11T16:51:07;100596.63;;;29.97;27.02
23427;BME280;41148;45.420;10.952;2022-08-11T16:53:36;100591.13;;;29.97;27.17
23427;BME280;41148;45.420;10.952;2022-08-11T16:56:41;100592.84;;;29.98;26.87
23427;BME280;41148;45.420;10.952;2022-08-11T16:59:10;100596.81;;;29.96;26.43